createdAt,value
2022-11-19T00:01:17.343Z,10.98
2022-11-19T00:03:48.697Z,9.25
2022-11-19T00:06:21.088Z,10.75
2022-11-19T00:08:47.522Z,10.57
2022-11-19T00:11:38.074Z,9.30
2022-11-19T00:14:05.002Z,9.50
2022-11-19T00:16:31.787Z,10.48
2022-11-19T00:18:58.242Z,8.57
2022-11-19T00:21:24.671Z,9.25
2022-11-19T00:23:54.106Z,10.02
2022-11-19T00:26:20.742Z,8.55
2022-11-19T00:28:47.334Z,9.30
2022-11-19T00:31:16.026Z,8.50
2022-11-19T00:33:44.426Z,8.10
2022-11-19T00:36:13.260Z,9.55
2022-11-19T00:38:39.849Z,8.93
2022-11-19T00:41:07.093Z,9.65
2022-11-19T00:43:49.964Z,9.18
2022-11-19T00:46:28.949Z,9.45
2022-11-19T00:48:57.137Z,9.05
2022-11-19T00:51:25.561Z,8.65
2022-11-19T00:53:52.322Z,9.50
2022-11-19T00:56:21.109Z,9.32
2022-11-19T00:58:48.200Z,8.15
2022-11-19T01:01:16.239Z,10.00
2022-11-19T01:03:43.531Z,8.13
2022-11-19T01:06:10.252Z,9.13
2022-11-19T01:08:37.066Z,9.60
2022-11-19T01:11:07.600Z,9.57
2022-11-19T01:13:37.857Z,8.70
2022-11-19T01:16:11.197Z,9.48
2022-11-19T01:18:38.811Z,8.43
2022-11-19T01:21:07.342Z,9.15
2022-11-19T01:23:34.287Z,10.85
2022-11-19T01:26:01.387Z,9.50
2022-11-19T01:28:28.667Z,10.80
2022-11-19T01:30:55.343Z,9.40
2022-11-19T01:33:22.626Z,9.27
2022-11-19T01:36:00.042Z,10.48
2022-11-19T01:40:53.384Z,10.32
2022-11-19T01:43:19.914Z,9.85
2022-11-19T01:45:49.131Z,10.43
2022-11-19T01:48:21.335Z,10.38
2022-11-19T01:50:52.777Z,10.65
2022-11-19T01:53:20.911Z,9.38
2022-11-19T01:55:48.293Z,10.52
2022-11-19T01:58:20.067Z,10.90
2022-11-19T02:00:47.394Z,10.15
2022-11-19T02:03:15.424Z,11.38
2022-11-19T02:05:43.108Z,10.77
2022-11-19T02:08:43.120Z,10.32
2022-11-19T02:11:12.614Z,11.20
2022-11-19T02:13:56.862Z,10.27
2022-11-19T02:16:52.670Z,11.27
2022-11-19T02:19:31.988Z,11.27
2022-11-19T02:22:21.728Z,11.60
2022-11-19T02:24:53.809Z,11.07
2022-11-19T02:27:37.058Z,11.50
2022-11-19T02:30:06.492Z,11.50
2022-11-19T02:32:37.082Z,11.60
2022-11-19T02:35:23.291Z,10.60
2022-11-19T02:37:58.744Z,10.13
2022-11-19T02:40:31.411Z,10.80
2022-11-19T02:43:08.520Z,12.10
2022-11-19T02:45:43.478Z,12.18
2022-11-19T02:48:16.247Z,11.38
2022-11-19T02:50:47.106Z,11.23
2022-11-19T02:53:13.545Z,11.95
2022-11-19T02:55:40.853Z,11.80
2022-11-19T02:58:35.051Z,11.98
2022-11-19T03:01:21.804Z,12.80
2022-11-19T03:04:12.431Z,11.75
2022-11-19T03:06:39.670Z,12.07
2022-11-19T03:09:06.141Z,12.75
2022-11-19T03:11:33.109Z,12.85
2022-11-19T03:14:36.625Z,12.60
2022-11-19T03:17:12.120Z,12.52
2022-11-19T03:19:56.803Z,13.98
2022-11-19T03:22:29.688Z,11.52
2022-11-19T03:25:22.113Z,13.98
2022-11-19T03:27:52.997Z,13.73
2022-11-19T03:30:20.499Z,13.77
2022-11-19T03:33:11.276Z,11.63
2022-11-19T03:35:43.539Z,14.30
2022-11-19T03:38:15.751Z,13.07
2022-11-19T03:40:44.419Z,13.60
2022-11-19T03:43:15.790Z,12.23
2022-11-19T03:45:45.321Z,12.35
2022-11-19T03:48:15.291Z,12.43
2022-11-19T03:51:04.650Z,12.77
2022-11-19T03:53:31.153Z,12.55
2022-11-19T03:56:03.156Z,13.88
2022-11-19T03:58:29.964Z,12.73
2022-11-19T04:00:56.397Z,12.07
2022-11-19T04:03:22.855Z,12.48
2022-11-19T04:05:49.350Z,13.50
2022-11-19T04:08:15.776Z,13.13
2022-11-19T04:10:42.258Z,10.98
2022-11-19T04:13:08.748Z,12.75
2022-11-19T04:15:35.204Z,13.60
2022-11-19T04:18:01.720Z,8.90
2022-11-19T04:20:28.210Z,11.95
2022-11-19T04:22:54.720Z,12.30
2022-11-19T04:25:21.210Z,12.10
2022-11-19T04:27:47.845Z,11.20
2022-11-19T04:30:15.319Z,12.13
2022-11-19T04:32:42.571Z,12.10
2022-11-19T04:35:09.418Z,10.43
2022-11-19T04:37:36.509Z,12.13
2022-11-19T04:40:03.511Z,12.35
2022-11-19T04:42:29.963Z,9.90
2022-11-19T04:44:56.451Z,11.02
2022-11-19T04:47:22.856Z,11.85
2022-11-19T04:49:49.350Z,12.18
2022-11-19T04:52:15.793Z,11.68
2022-11-19T04:54:42.215Z,10.32
2022-11-19T04:57:08.755Z,12.32
2022-11-19T04:59:35.156Z,12.20
2022-11-19T05:02:01.625Z,12.68
2022-11-19T05:04:28.161Z,11.85
2022-11-19T05:06:54.670Z,12.07
2022-11-19T05:09:21.532Z,12.25
2022-11-19T05:11:48.176Z,12.07
2022-11-19T05:14:14.717Z,15.55
2022-11-19T05:16:41.248Z,12.05
2022-11-19T05:19:07.744Z,10.45
2022-11-19T05:21:34.262Z,12.48
2022-11-19T05:24:00.733Z,12.88
2022-11-19T05:26:27.208Z,11.02
2022-11-19T05:28:53.680Z,11.85
2022-11-19T05:31:20.210Z,12.52
2022-11-19T05:33:46.597Z,12.45
2022-11-19T05:36:13.123Z,12.15
2022-11-19T05:38:41.051Z,12.02
2022-11-19T05:41:07.546Z,12.45
2022-11-19T05:43:34.021Z,11.75
2022-11-19T05:46:01.864Z,12.63
2022-11-19T05:48:29.341Z,11.27
2022-11-19T05:50:56.292Z,12.23
2022-11-19T05:53:22.843Z,11.85
2022-11-19T05:55:49.317Z,12.48
2022-11-19T05:58:15.788Z,12.02
2022-11-19T06:00:42.283Z,11.75
2022-11-19T06:03:09.581Z,10.23
2022-11-19T06:05:40.002Z,11.88
2022-11-19T06:08:07.229Z,11.82
2022-11-19T06:10:33.784Z,11.32
2022-11-19T06:13:00.149Z,12.10
2022-11-19T06:15:26.659Z,7.20
2022-11-19T06:17:53.166Z,11.02
2022-11-19T06:20:19.595Z,9.13
2022-11-19T06:22:46.029Z,11.02
2022-11-19T06:25:12.509Z,10.90
2022-11-19T06:27:39.155Z,9.88
2022-11-19T06:30:07.285Z,11.38
2022-11-19T06:32:33.742Z,10.63
2022-11-19T06:35:00.148Z,10.48
2022-11-19T06:37:27.085Z,11.70
2022-11-19T06:39:55.410Z,10.65
2022-11-19T06:42:37.499Z,9.82
2022-11-19T06:45:12.959Z,10.18
2022-11-19T06:47:40.997Z,12.20
2022-11-19T06:50:09.914Z,9.73
2022-11-19T06:52:36.618Z,10.60
2022-11-19T06:55:03.756Z,10.63
2022-11-19T06:57:30.476Z,10.88
2022-11-19T06:59:57.294Z,10.15
2022-11-19T07:02:24.035Z,9.80
2022-11-19T07:04:50.653Z,10.75
2022-11-19T07:07:18.565Z,11.75
2022-11-19T07:09:45.122Z,9.85
2022-11-19T07:12:11.793Z,11.57
2022-11-19T07:14:38.297Z,11.85
2022-11-19T07:17:05.533Z,9.82
2022-11-19T07:19:32.241Z,9.90
2022-11-19T07:21:58.778Z,11.07
2022-11-19T07:24:25.210Z,9.50
2022-11-19T07:26:51.840Z,11.27
2022-11-19T07:29:18.839Z,10.80
2022-11-19T07:31:49.442Z,10.05
2022-11-19T07:34:17.097Z,10.27
2022-11-19T07:36:44.050Z,10.32
2022-11-19T07:39:10.543Z,11.13
2022-11-19T07:41:55.736Z,11.07
2022-11-19T07:44:22.272Z,10.75
2022-11-19T07:46:48.775Z,9.90
2022-11-19T07:49:15.263Z,10.73
2022-11-19T07:51:41.772Z,9.48
2022-11-19T07:54:10.398Z,10.60
2022-11-19T07:56:36.906Z,10.02
2022-11-19T07:59:03.962Z,7.20
2022-11-19T08:01:31.566Z,12.27
2022-11-19T08:03:58.099Z,11.52
2022-11-19T08:06:26.230Z,11.20
2022-11-19T08:08:55.082Z,11.45
2022-11-19T08:11:22.347Z,10.77
2022-11-19T08:13:48.792Z,10.38
2022-11-19T08:16:35.906Z,11.98
2022-11-19T08:19:04.236Z,11.07
2022-11-19T08:21:30.722Z,10.90
2022-11-19T08:23:57.158Z,11.57
2022-11-19T08:26:23.982Z,11.38
2022-11-19T08:28:50.730Z,11.68
2022-11-19T08:31:17.822Z,9.93
2022-11-19T08:33:44.359Z,11.60
2022-11-19T08:36:10.859Z,10.50
2022-11-19T08:38:38.838Z,10.52
2022-11-19T08:41:24.280Z,10.57
2022-11-19T08:43:50.745Z,11.23
2022-11-19T08:46:17.357Z,11.23
2022-11-19T08:48:43.905Z,9.85
2022-11-19T08:51:10.658Z,10.65
2022-11-19T08:53:37.289Z,10.77
2022-11-19T08:56:03.926Z,10.07
2022-11-19T08:58:30.427Z,9.70
2022-11-19T09:00:56.912Z,10.23
2022-11-19T09:03:23.677Z,9.77
2022-11-19T09:05:50.207Z,9.23
2022-11-19T09:08:16.740Z,8.82
2022-11-19T09:10:45.686Z,10.52
2022-11-19T09:13:12.219Z,9.27
2022-11-19T09:15:38.604Z,9.50
2022-11-19T09:18:05.252Z,9.52
2022-11-19T09:20:31.871Z,9.05
2022-11-19T09:22:58.509Z,10.60
2022-11-19T09:25:25.043Z,9.75
2022-11-19T09:27:58.280Z,8.80
2022-11-19T09:30:24.857Z,7.93
2022-11-19T09:32:51.663Z,9.38
2022-11-19T09:35:18.585Z,9.05
2022-11-19T09:37:45.087Z,8.57
2022-11-19T09:40:23.223Z,9.38
2022-11-19T09:43:13.950Z,9.27
2022-11-19T09:45:58.982Z,9.27
2022-11-19T09:51:02.182Z,7.93
2022-11-19T09:53:42.686Z,8.75
2022-11-19T09:56:15.822Z,7.80
2022-11-19T09:58:43.954Z,8.30
2022-11-19T10:01:20.000Z,7.00
2022-11-19T10:03:52.005Z,7.93
2022-11-19T10:06:22.130Z,8.15
2022-11-19T10:09:16.642Z,8.63
2022-11-19T10:12:06.618Z,8.18
2022-11-19T10:14:56.397Z,7.72
2022-11-19T10:17:47.936Z,8.02
2022-11-19T10:20:32.605Z,7.57
2022-11-19T10:23:56.054Z,8.20
2022-11-19T10:26:54.559Z,7.30
2022-11-19T10:29:26.156Z,7.32
2022-11-19T10:31:52.829Z,8.07
2022-11-19T10:34:25.609Z,6.82
2022-11-19T10:36:57.909Z,7.97
2022-11-19T10:39:37.792Z,8.43
2022-11-19T10:42:28.760Z,6.60
2022-11-19T10:45:16.185Z,6.50
2022-11-19T10:48:06.043Z,7.25
2022-11-19T10:50:35.569Z,6.85
2022-11-19T10:53:21.235Z,8.57
2022-11-19T10:55:54.955Z,7.13
2022-11-19T10:58:46.205Z,7.13
2022-11-19T11:01:31.383Z,6.68
2022-11-19T11:04:00.987Z,7.88
2022-11-19T11:06:27.652Z,6.80
2022-11-19T11:08:55.813Z,7.38
2022-11-19T11:11:52.926Z,6.68
2022-11-19T11:14:42.694Z,7.15
2022-11-19T11:20:17.013Z,7.32
2022-11-19T11:22:45.931Z,7.57
2022-11-19T11:25:27.822Z,7.90
2022-11-19T11:28:26.822Z,6.57
2022-11-19T11:30:55.448Z,7.90
2022-11-19T11:33:26.033Z,7.70
2022-11-19T11:35:59.578Z,7.50
2022-11-19T11:38:27.734Z,7.25
2022-11-19T11:42:03.775Z,7.03
2022-11-19T11:44:14.374Z,7.72
2022-11-19T11:47:07.202Z,7.13
2022-11-19T11:49:40.517Z,7.60
2022-11-19T11:52:09.918Z,6.05
2022-11-19T11:54:38.361Z,6.80
2022-11-19T11:57:33.107Z,6.55
2022-11-19T12:00:01.193Z,6.20
2022-11-19T12:02:30.617Z,6.93
2022-11-19T12:05:07.014Z,6.75
2022-11-19T12:08:02.706Z,6.55
2022-11-19T12:10:38.563Z,7.05
2022-11-19T12:13:33.728Z,6.70
2022-11-19T12:16:00.336Z,6.72
2022-11-19T12:18:52.846Z,6.97
2022-11-19T12:21:58.609Z,8.68
2022-11-19T12:24:44.100Z,6.40
2022-11-19T12:27:51.894Z,6.00
2022-11-19T12:30:21.653Z,5.90
2022-11-19T12:32:54.115Z,5.20
2022-11-19T12:35:23.085Z,5.65
2022-11-19T12:38:04.768Z,5.32
2022-11-19T12:40:40.922Z,5.38
2022-11-19T12:43:21.360Z,6.25
2022-11-19T12:45:56.847Z,5.40
2022-11-19T12:48:55.390Z,5.25
2022-11-19T12:51:42.881Z,5.38
2022-11-19T12:54:33.459Z,5.80
2022-11-19T12:57:29.864Z,5.22
2022-11-19T13:00:13.020Z,4.97
2022-11-19T13:03:04.337Z,4.65
2022-11-19T13:05:54.199Z,4.35
2022-11-19T13:08:35.346Z,4.93
2022-11-19T13:11:10.824Z,4.43
2022-11-19T13:13:41.751Z,4.85
2022-11-19T13:16:15.883Z,4.07
2022-11-19T13:18:48.158Z,4.63
2022-11-19T13:21:46.492Z,4.32
2022-11-19T13:24:26.564Z,4.35
2022-11-19T13:26:57.785Z,3.83
2022-11-19T13:29:31.473Z,4.03
2022-11-19T13:32:28.971Z,4.15
2022-11-19T13:35:07.608Z,4.00
2022-11-19T13:38:08.185Z,3.40
2022-11-19T13:40:40.148Z,3.80
2022-11-19T13:43:37.268Z,4.55
2022-11-19T13:46:12.724Z,4.18
2022-11-19T13:49:02.069Z,4.03
2022-11-19T13:51:43.090Z,4.03
2022-11-19T13:54:18.652Z,4.10
2022-11-19T13:56:49.066Z,3.72
2022-11-19T13:59:29.072Z,3.30
2022-11-19T14:02:04.205Z,3.95
2022-11-19T14:05:06.053Z,3.67
2022-11-19T14:08:02.697Z,3.20
2022-11-19T14:10:40.105Z,3.90
2022-11-19T14:13:47.066Z,4.45
2022-11-19T14:16:57.073Z,3.05
2022-11-19T14:19:42.338Z,3.38
2022-11-19T14:23:12.345Z,3.78
2022-11-19T14:26:07.417Z,4.20
2022-11-19T14:28:54.564Z,3.58
2022-11-19T14:31:21.631Z,4.38
2022-11-19T14:33:48.311Z,4.05
2022-11-19T14:36:22.670Z,3.65
2022-11-19T14:39:01.908Z,4.25
2022-11-19T14:41:35.644Z,3.30
2022-11-19T14:44:09.682Z,3.58
2022-11-19T14:46:48.729Z,3.58
2022-11-19T14:49:21.494Z,3.20
2022-11-19T14:51:54.908Z,3.60
2022-11-19T14:54:37.000Z,3.90
2022-11-19T14:57:17.326Z,3.20
2022-11-19T14:59:54.007Z,3.75
2022-11-19T15:02:26.443Z,4.25
2022-11-19T15:05:20.005Z,3.88
2022-11-19T15:07:55.546Z,3.70
2022-11-19T15:10:29.833Z,3.58
2022-11-19T15:13:18.916Z,4.00
2022-11-19T15:15:47.884Z,4.72
2022-11-19T15:18:39.395Z,4.13
2022-11-19T15:21:21.906Z,3.92
2022-11-19T15:24:45.897Z,5.20
2022-11-19T15:27:18.373Z,4.15
2022-11-19T15:29:59.751Z,3.50
2022-11-19T15:32:51.109Z,4.88
2022-11-19T15:35:47.259Z,4.05
2022-11-19T15:40:48.458Z,5.82
2022-11-19T15:43:41.067Z,5.60
2022-11-19T15:46:12.306Z,6.15
2022-11-19T15:51:15.121Z,5.60
2022-11-19T15:54:01.640Z,5.53
2022-11-19T15:56:32.149Z,5.20
2022-11-19T15:59:03.416Z,7.22
2022-11-19T16:04:03.403Z,5.82
2022-11-19T16:06:31.023Z,5.25
2022-11-19T16:09:00.823Z,6.53
2022-11-19T16:11:49.529Z,6.22
2022-11-19T16:14:43.302Z,5.72
2022-11-19T16:17:32.953Z,5.95
2022-11-19T16:20:04.413Z,5.53
2022-11-19T16:22:33.961Z,5.85
2022-11-19T16:25:18.734Z,5.55
2022-11-19T16:27:46.299Z,6.55
2022-11-19T16:30:21.733Z,8.35
2022-11-19T16:32:49.750Z,6.70
2022-11-19T16:35:26.631Z,6.85
2022-11-19T16:37:54.799Z,6.18
2022-11-19T16:40:22.706Z,7.40
2022-11-19T16:42:54.830Z,5.80
2022-11-19T16:45:24.559Z,5.68
2022-11-19T16:47:55.656Z,5.65
2022-11-19T16:50:32.296Z,5.90
2022-11-19T16:53:00.531Z,7.30
2022-11-19T16:55:28.804Z,6.05
2022-11-19T16:57:59.949Z,5.63
2022-11-19T17:00:35.897Z,6.63
2022-11-19T17:03:16.563Z,8.88
2022-11-19T17:05:48.705Z,13.38
2022-11-19T17:08:25.254Z,12.57
2022-11-19T17:11:40.458Z,12.52
2022-11-19T17:14:12.626Z,9.40
2022-11-19T17:16:39.405Z,5.80
2022-11-19T17:19:23.413Z,6.00
2022-11-19T17:22:03.210Z,7.20
2022-11-19T17:24:34.227Z,7.93
2022-11-19T17:27:00.848Z,7.45
2022-11-19T17:29:27.525Z,5.55
2022-11-19T17:31:55.462Z,6.30
2022-11-19T17:34:33.826Z,6.22
2022-11-19T17:37:00.496Z,7.65
2022-11-19T17:39:27.001Z,7.93
2022-11-19T17:42:13.898Z,8.07
2022-11-19T17:44:40.940Z,8.35
2022-11-19T17:47:23.119Z,10.13
2022-11-19T17:49:53.556Z,10.35
2022-11-19T17:52:27.746Z,9.55
2022-11-19T17:54:57.188Z,11.75
2022-11-19T17:57:23.870Z,8.02
2022-11-19T17:59:50.437Z,7.80
2022-11-19T18:02:20.039Z,7.43
2022-11-19T18:04:48.308Z,7.55
2022-11-19T18:07:15.555Z,7.03
2022-11-19T18:09:42.282Z,7.25
2022-11-19T18:12:19.889Z,7.05
2022-11-19T18:17:15.253Z,7.75
2022-11-19T18:19:42.389Z,7.78
2022-11-19T18:22:18.047Z,8.93
2022-11-19T18:24:46.756Z,7.95
2022-11-19T18:27:14.822Z,8.70
2022-11-19T18:29:41.447Z,8.30
2022-11-19T18:32:10.880Z,7.30
2022-11-19T18:34:37.551Z,7.65
2022-11-19T18:37:04.151Z,7.88
2022-11-19T18:39:30.742Z,8.88
2022-11-19T18:41:57.281Z,7.43
2022-11-19T18:44:35.975Z,7.93
2022-11-19T18:47:05.649Z,7.78
2022-11-19T18:49:34.718Z,10.38
2022-11-19T18:52:02.599Z,9.80
2022-11-19T18:54:29.248Z,10.48
2022-11-19T18:56:55.858Z,11.90
2022-11-19T18:59:23.009Z,10.73
2022-11-19T19:01:52.173Z,9.48
2022-11-19T19:04:18.832Z,7.97
2022-11-19T19:06:45.351Z,9.95
2022-11-19T19:09:12.170Z,8.25
2022-11-19T19:11:57.185Z,7.68
2022-11-19T19:14:23.747Z,7.13
2022-11-19T19:16:51.081Z,7.43
2022-11-19T19:19:20.507Z,8.73
2022-11-19T19:21:47.438Z,8.93
2022-11-19T19:24:14.648Z,8.52
2022-11-19T19:26:41.631Z,8.07
2022-11-19T19:29:08.512Z,8.38
2022-11-19T19:31:35.818Z,7.80
2022-11-19T19:34:02.399Z,7.35
2022-11-19T19:36:29.580Z,7.22
2022-11-19T19:38:56.155Z,7.40
2022-11-19T19:41:25.536Z,8.00
2022-11-19T19:43:53.763Z,6.47
2022-11-19T19:46:22.497Z,7.72
2022-11-19T19:48:54.335Z,7.15
2022-11-19T19:51:23.189Z,7.50
2022-11-19T19:53:51.231Z,7.45
2022-11-19T19:56:23.741Z,6.88
2022-11-19T19:58:51.444Z,6.93
2022-11-19T20:01:21.037Z,6.47
2022-11-19T20:03:53.207Z,6.95
2022-11-19T20:06:23.396Z,5.97
2022-11-19T20:08:50.336Z,6.97
2022-11-19T20:11:20.247Z,5.97
2022-11-19T20:13:47.709Z,6.30
2022-11-19T20:16:19.407Z,6.85
2022-11-19T20:18:47.595Z,6.82
2022-11-19T20:21:16.888Z,7.85
2022-11-19T20:23:43.866Z,8.90
2022-11-19T20:26:13.362Z,10.90
2022-11-19T20:28:39.934Z,9.82
2022-11-19T20:31:13.008Z,10.13
2022-11-19T20:33:40.988Z,11.70
2022-11-19T20:36:09.243Z,9.27
2022-11-19T20:38:37.557Z,8.43
2022-11-19T20:41:06.803Z,9.07
2022-11-19T20:43:53.361Z,7.53
2022-11-19T20:46:21.837Z,10.23
2022-11-19T20:48:48.894Z,9.13
2022-11-19T20:51:16.406Z,8.20
2022-11-19T20:53:43.587Z,10.13
2022-11-19T20:56:13.138Z,11.35
2022-11-19T20:58:39.730Z,9.80
2022-11-19T21:01:07.950Z,13.73
2022-11-19T21:03:34.678Z,13.52
2022-11-19T21:06:03.069Z,13.02
2022-11-19T21:08:31.938Z,11.93
2022-11-19T21:11:04.097Z,10.07
2022-11-19T21:13:30.809Z,9.75
2022-11-19T21:15:58.941Z,9.80
2022-11-19T21:18:26.426Z,8.45
2022-11-19T21:20:52.988Z,7.60
2022-11-19T21:23:20.405Z,10.65
2022-11-19T21:25:47.003Z,10.65
2022-11-19T21:28:14.193Z,9.68
2022-11-19T21:30:40.713Z,9.40
2022-11-19T21:33:07.525Z,10.68
2022-11-19T21:35:33.994Z,10.55
2022-11-19T21:38:00.486Z,10.38
2022-11-19T21:40:27.009Z,9.60
2022-11-19T21:42:53.555Z,10.27
2022-11-19T21:45:20.047Z,9.57
2022-11-19T21:47:46.654Z,9.93
2022-11-19T21:50:13.151Z,12.20
2022-11-19T21:52:39.628Z,10.95
2022-11-19T21:55:06.302Z,11.82
2022-11-19T21:57:32.888Z,13.27
2022-11-19T21:59:59.389Z,11.10
2022-11-19T22:02:25.962Z,14.25
2022-11-19T22:04:52.437Z,11.98
2022-11-19T22:07:19.006Z,11.18
2022-11-19T22:09:45.497Z,8.32
2022-11-19T22:12:12.033Z,9.80
2022-11-19T22:14:38.524Z,8.80
2022-11-19T22:17:06.129Z,9.05
2022-11-19T22:19:32.682Z,10.35
2022-11-19T22:21:59.174Z,10.55
2022-11-19T22:24:25.682Z,13.05
2022-11-19T22:26:54.847Z,10.88
2022-11-19T22:29:21.584Z,10.27
2022-11-19T22:31:48.316Z,11.10
2022-11-19T22:34:14.918Z,11.48
2022-11-19T22:36:42.735Z,8.68
2022-11-19T22:39:09.337Z,9.77
2022-11-19T22:41:35.918Z,11.13
2022-11-19T22:44:02.498Z,11.32
2022-11-19T22:46:29.056Z,9.43
2022-11-19T22:48:55.598Z,9.48
2022-11-19T22:51:24.546Z,9.40
2022-11-19T22:53:52.953Z,8.43
2022-11-19T22:56:25.170Z,9.10
2022-11-19T22:58:52.769Z,8.77
2022-11-19T23:01:24.128Z,8.75
2022-11-19T23:03:51.032Z,9.05
2022-11-19T23:06:18.135Z,7.85
2022-11-19T23:08:45.463Z,8.68
2022-11-19T23:11:14.569Z,9.00
2022-11-19T23:13:43.009Z,8.50
2022-11-19T23:16:20.347Z,7.25
2022-11-19T23:18:48.934Z,8.23
2022-11-19T23:21:20.933Z,6.95
2022-11-19T23:23:47.739Z,6.53
2022-11-19T23:26:16.487Z,7.45
2022-11-19T23:28:44.817Z,11.50
2022-11-19T23:31:19.811Z,11.60
2022-11-19T23:33:47.850Z,10.80
2022-11-19T23:36:17.421Z,8.57
2022-11-19T23:38:44.301Z,8.15
2022-11-19T23:41:12.671Z,7.40
2022-11-19T23:43:39.526Z,6.25
2022-11-19T23:46:11.356Z,7.38
2022-11-19T23:48:39.626Z,7.75
2022-11-19T23:51:15.755Z,7.60
2022-11-19T23:53:42.800Z,7.18
2022-11-19T23:56:11.162Z,6.18
2022-11-19T23:58:37.875Z,8.98
